Time;durP1;ratioP1;P1;durP2;ratioP2;P2;SDS_P1;SDS_P2;PMS_P1;PMS_P2;Temp;Humidity;BMP_temperature;BMP_pressure;BME280_temperature;BME280_humidity;BME280_pressure;Samples;Min_cycle;Max_cycle;Signal;HPM_P1;HPM_P2
2024/03/07 00:02:18;;;;;;;0.20;0.20;;;;;;;9.12;77.84;101263.75;4913843;29;20040;-88
2024/03/07 00:04:44;;;;;;;0.20;0.20;;;;;;;9.10;77.66;101263.81;4897981;29;20039;-89
2024/03/07 00:07:09;;;;;;;0.20;0.20;;;;;;;9.09;77.64;101263.84;4913742;29;20126;-89
2024/03/07 00:09:35;;;;;;;0.20;0.20;;;;;;;9.08;78.54;101267.34;4897896;29;20032;-89
2024/03/07 00:12:01;;;;;;;0.20;0.20;;;;;;;9.08;77.88;101252.69;4882350;29;20032;-89
2024/03/07 00:14:27;;;;;;;0.20;0.20;;;;;;;9.10;78.30;101260.38;4882303;29;20028;-88
2024/03/07 00:16:55;;;;;;;0.20;0.20;;;;;;;9.12;78.15;101248.25;4897887;29;20032;-89
2024/03/07 00:19:21;;;;;;;0.20;0.20;;;;;;;9.09;77.99;101254.38;4898239;29;20028;-89
2024/03/07 00:21:47;;;;;;;0.20;0.20;;;;;;;8.98;78.73;101242.72;4897963;29;20028;-89
2024/03/07 00:24:13;;;;;;;0.20;0.20;;;;;;;9.05;78.63;101251.97;4913171;29;20506;-88
2024/03/07 00:26:40;;;;;;;0.20;0.20;;;;;;;9.10;78.81;101252.63;4882217;29;20043;-88
2024/03/07 00:29:06;;;;;;;0.20;0.20;;;;;;;9.03;79.45;101248.56;4897938;29;20028;-89
2024/03/07 00:31:32;;;;;;;0.20;0.20;;;;;;;8.99;79.37;101237.50;4882096;29;20135;-88
2024/03/07 00:33:58;;;;;;;0.20;0.20;;;;;;;8.98;79.39;101243.56;4897613;29;20043;-88
2024/03/07 00:36:24;;;;;;;0.20;0.20;;;;;;;8.90;80.03;101241.22;4913183;29;20028;-89
2024/03/07 00:38:50;;;;;;;0.20;0.20;;;;;;;8.93;80.09;101240.28;4913258;29;20490;-88
2024/03/07 00:41:17;;;;;;;0.20;0.20;;;;;;;9.01;79.97;101246.03;4912780;29;20111;-89
2024/03/07 00:43:42;;;;;;;0.20;0.20;;;;;;;8.87;80.61;101233.59;4897542;29;20042;-88
2024/03/07 00:46:08;;;;;;;0.20;0.20;;;;;;;8.94;81.01;101244.53;4897575;29;20024;-89
2024/03/07 00:48:33;;;;;;;0.20;0.20;;;;;;;8.97;80.80;101238.47;4912784;29;20083;-88
2024/03/07 00:50:59;;;;;;;0.20;0.20;;;;;;;8.96;80.76;101245.34;4882329;29;20031;-89
2024/03/07 00:53:25;;;;;;;0.20;0.20;;;;;;;8.89;81.43;101229.22;4901502;29;20072;-88
2024/03/07 00:55:51;;;;;;;0.20;0.20;;;;;;;8.96;81.69;101239.34;4901094;29;20028;-88
2024/03/07 00:58:16;;;;;;;0.20;0.20;;;;;;;8.82;81.39;101224.31;4901153;29;20036;-89
2024/03/07 01:00:43;;;;;;;0.20;0.20;;;;;;;8.91;81.30;101230.00;4901010;29;20032;-88
2024/03/07 01:03:13;;;;;;;0.20;0.20;;;;;;;8.90;80.91;101232.63;4885772;29;20028;-89
2024/03/07 01:05:39;;;;;;;0.20;0.20;;;;;;;8.94;80.95;101235.94;4901402;29;20032;-88
2024/03/07 01:08:05;;;;;;;0.20;0.20;;;;;;;8.86;80.73;101228.50;4901229;29;20509;-89
2024/03/07 01:10:31;;;;;;;0.20;0.20;;;;;;;8.95;81.29;101235.06;4916442;29;20083;-88
2024/03/07 01:13:01;;;;;;;0.20;0.20;;;;;;;8.86;81.39;101216.44;4885607;29;20024;-88
2024/03/07 01:15:26;;;;;;;0.20;0.20;;;;;;;8.95;81.03;101229.91;4901452;29;20032;-90
2024/03/07 01:17:52;;;;;;;0.20;0.20;;;;;;;8.83;80.78;101221.66;4885180;29;20030;-90
2024/03/07 01:20:18;;;;;;;0.20;0.20;;;;;;;8.81;80.46;101228.63;4916250;29;20060;-88
2024/03/07 01:22:44;;;;;;;0.20;0.20;;;;;;;8.74;80.96;101221.97;4916435;29;20051;-89
2024/03/07 01:25:09;;;;;;;0.20;0.20;;;;;;;8.67;81.27;101220.47;4900712;29;20521;-87
2024/03/07 01:27:35;;;;;;;0.20;0.20;;;;;;;8.75;81.20;101220.22;4900641;29;20503;-87
2024/03/07 01:30:01;;;;;;;0.20;0.20;;;;;;;8.78;81.33;101236.47;4900304;29;20032;-87
2024/03/07 01:32:28;;;;;;;0.20;0.20;;;;;;;8.79;81.64;101235.56;4916377;29;20039;-87
2024/03/07 01:34:53;;;;;;;0.20;0.20;;;;;;;8.85;81.66;101244.88;4900534;29;20130;-87
2024/03/07 01:37:19;;;;;;;0.20;0.20;;;;;;;8.81;81.61;101231.19;4900318;29;20028;-88
2024/03/07 01:39:44;;;;;;;0.20;0.20;;;;;;;8.87;82.57;101238.75;4915863;29;20487;-89
2024/03/07 01:42:10;;;;;;;0.20;0.20;;;;;;;8.75;82.50;101225.38;4900345;29;20035;-88
2024/03/07 01:44:36;;;;;;;0.20;0.20;;;;;;;8.71;82.10;101219.47;4915790;29;20415;-88
2024/03/07 01:47:03;;;;;;;0.20;0.20;;;;;;;8.71;82.21;101214.31;4884758;29;20509;-88
2024/03/07 01:49:30;;;;;;;0.20;0.20;;;;;;;8.86;82.09;101231.91;4915865;29;20146;-87
2024/03/07 01:51:56;;;;;;;0.20;0.20;;;;;;;8.78;82.47;101225.31;4900485;29;20040;-88
2024/03/07 01:54:22;;;;;;;0.20;0.20;;;;;;;8.74;82.37;101221.97;4915776;29;20028;-87
2024/03/07 01:56:47;;;;;;;0.20;0.20;;;;;;;8.65;82.50;101222.25;4900123;29;20028;-88
2024/03/07 01:59:13;;;;;;;0.20;0.20;;;;;;;8.64;82.54;101230.88;4884524;29;20032;-88
2024/03/07 02:01:39;;;;;;;0.20;0.20;;;;;;;8.69;82.70;101229.00;4900422;29;20047;-87
2024/03/07 02:04:05;;;;;;;0.20;0.20;;;;;;;8.55;81.73;101228.59;4883581;29;20075;-87
2024/03/07 02:06:32;;;;;;;0.20;0.20;;;;;;;8.45;82.37;101216.88;4915609;29;20032;-87
2024/03/07 02:08:57;;;;;;;0.20;0.20;;;;;;;8.50;82.85;101228.75;4899499;29;20043;-87
2024/03/07 02:11:23;;;;;;;0.20;0.20;;;;;;;8.44;83.32;101220.34;4899927;29;20032;-88
2024/03/07 02:13:49;;;;;;;0.20;0.20;;;;;;;8.44;83.14;101222.91;4915594;29;20028;-88
2024/03/07 02:16:14;;;;;;;0.20;0.20;;;;;;;8.31;83.70;101207.78;4915561;29;20036;-88
2024/03/07 02:18:40;;;;;;;0.20;0.20;;;;;;;8.37;83.69;101219.69;4899639;29;20028;-87
2024/03/07 02:21:09;;;;;;;0.20;0.20;;;;;;;8.26;83.75;101214.84;4915577;29;20051;-89
2024/03/07 02:23:35;;;;;;;0.20;0.20;;;;;;;8.16;83.94;101208.28;4899594;29;20024;-87
2024/03/07 02:26:00;;;;;;;0.20;0.20;;;;;;;8.14;83.54;101215.19;4915361;29;20054;-88
2024/03/07 02:28:26;;;;;;;0.20;0.20;;;;;;;8.12;84.12;101216.13;4916527;29;20506;-87
2024/03/07 02:30:51;;;;;;;0.20;0.20;;;;;;;7.93;84.24;101192.63;4914872;29;20123;-88
2024/03/07 02:33:17;;;;;;;0.20;0.20;;;;;;;8.04;84.45;101219.75;4915615;29;20071;-88
2024/03/07 02:35:42;;;;;;;0.20;0.20;;;;;;;8.07;84.56;101228.31;4899160;29;20056;-88
2024/03/07 02:38:10;;;;;;;0.20;0.20;;;;;;;8.00;84.89;101222.47;4899023;29;20031;-88
2024/03/07 02:40:36;;;;;;;0.20;0.20;;;;;;;7.95;84.32;101224.31;4884327;29;20035;-88
2024/03/07 02:43:04;;;;;;;0.20;0.20;;;;;;;7.81;84.27;101200.69;4899105;29;20036;-87
2024/03/07 02:45:30;;;;;;;0.20;0.20;;;;;;;7.95;84.55;101226.91;4899588;29;20038;-88
2024/03/07 02:47:56;;;;;;;0.20;0.20;;;;;;;7.91;85.20;101220.16;4899451;29;20039;-88
2024/03/07 02:50:22;;;;;;;0.20;0.20;;;;;;;7.81;84.81;101211.00;4914675;29;20142;-87
2024/03/07 02:52:49;;;;;;;0.20;0.20;;;;;;;7.71;85.30;101211.25;4898645;29;20088;-88
2024/03/07 02:55:15;;;;;;;0.20;0.20;;;;;;;7.70;85.74;101199.28;4914873;29;20407;-87
2024/03/07 02:57:41;;;;;;;0.20;0.20;;;;;;;7.84;85.34;101227.22;4927365;29;20079;-88
2024/03/07 03:00:19;;;;;;;0.10;0.10;;;;;;;7.63;85.82;101202.91;4933669;29;20561;-87
2024/03/07 03:02:46;;;;;;;0.20;0.20;;;;;;;7.74;85.12;101233.50;4933714;29;20031;-88
2024/03/07 03:05:13;;;;;;;0.20;0.20;;;;;;;7.69;85.05;101225.91;4933806;29;20118;-88
2024/03/07 03:07:39;;;;;;;0.20;0.20;;;;;;;7.62;84.59;101236.41;4933215;29;20107;-87
2024/03/07 03:10:09;;;;;;;0.20;0.20;;;;;;;7.59;85.15;101221.91;4917759;29;20512;-87
2024/03/07 03:12:38;;;;;;;0.20;0.20;;;;;;;7.47;84.28;101217.06;4933760;29;20059;-88
2024/03/07 03:15:06;;;;;;;0.20;0.20;;;;;;;7.34;84.30;101205.41;4948472;28;20028;-87
2024/03/07 03:17:31;;;;;;;0.20;0.20;;;;;;;7.50;84.80;101235.03;4949290;29;20028;-87
2024/03/07 03:19:57;;;;;;;0.20;0.20;;;;;;;7.40;84.16;101226.69;4901905;29;20122;-87
2024/03/07 03:22:23;;;;;;;0.20;0.20;;;;;;;7.31;84.07;101226.94;4949296;29;20035;-88
2024/03/07 03:24:48;;;;;;;0.20;0.20;;;;;;;7.36;83.89;101239.66;4932931;29;20043;-87
2024/03/07 03:27:14;;;;;;;0.20;0.20;;;;;;;7.24;83.64;101235.69;4933284;29;20067;-88
2024/03/07 03:29:40;;;;;;;0.20;0.20;;;;;;;7.24;84.32;101233.09;4932847;29;20023;-88
2024/03/07 03:32:07;;;;;;;0.20;0.20;;;;;;;7.39;84.06;101237.03;4917384;29;20134;-87
2024/03/07 03:34:33;;;;;;;0.20;0.20;;;;;;;7.43;83.50;101236.06;4932846;29;20034;-88
2024/03/07 03:36:59;;;;;;;0.20;0.20;;;;;;;7.38;83.37;101232.78;4932943;29;20059;-88
2024/03/07 03:39:26;;;;;;;0.20;0.20;;;;;;;7.51;83.26;101239.28;4932839;29;20032;-87
2024/03/07 03:41:52;;;;;;;0.20;0.20;;;;;;;7.56;82.94;101239.97;4917246;29;20472;-89
2024/03/07 03:44:18;;;;;;;0.20;0.20;;;;;;;7.47;81.97;101219.63;4917108;29;20203;-88
2024/03/07 03:46:44;;;;;;;0.20;0.20;;;;;;;7.45;82.17;101244.56;4932696;29;20027;-88
2024/03/07 03:49:10;;;;;;;0.20;0.20;;;;;;;7.44;82.28;101238.59;4916939;29;20051;-87
2024/03/07 03:51:36;;;;;;;0.20;0.20;;;;;;;7.46;82.68;101246.25;4932238;29;20510;-87
2024/03/07 03:54:01;;;;;;;0.20;0.20;;;;;;;7.48;82.88;101236.78;4933112;29;20035;-88
2024/03/07 03:56:27;;;;;;;0.20;0.20;;;;;;;7.41;82.38;101242.97;4948149;29;20023;-90
2024/03/07 03:58:53;;;;;;;0.20;0.20;;;;;;;7.57;82.07;101240.84;4931119;29;20032;-91
2024/03/07 04:01:18;;;;;;;0.20;0.20;;;;;;;7.59;82.09;101246.81;4951967;29;20039;-89
2024/03/07 04:03:46;;;;;;;0.20;0.20;;;;;;;7.74;81.71;101246.38;4968327;28;20094;-89
2024/03/07 04:06:12;;;;;;;0.20;0.20;;;;;;;7.51;81.86;101228.97;4951797;29;20687;-87
2024/03/07 04:08:37;;;;;;;0.20;0.20;;;;;;;7.51;82.04;101238.44;4967607;28;20556;-87
2024/03/07 04:11:04;;;;;;;0.20;0.20;;;;;;;7.29;82.12;101228.72;4966944;28;20067;-88
2024/03/07 04:13:30;;;;;;;0.20;0.20;;;;;;;7.35;81.87;101238.81;4951227;29;20034;-88
2024/03/07 04:15:56;;;;;;;0.20;0.20;;;;;;;7.36;82.48;101240.50;4951668;29;20067;-88
2024/03/07 04:18:21;;;;;;;0.20;0.20;;;;;;;7.44;82.68;101253.19;4967326;28;20023;-88
2024/03/07 04:20:47;;;;;;;0.20;0.20;;;;;;;7.53;81.95;101257.25;4966982;28;20127;-87
2024/03/07 04:23:12;;;;;;;0.20;0.20;;;;;;;7.46;82.37;101256.56;4966751;28;20035;-87
2024/03/07 04:25:38;;;;;;;0.20;0.20;;;;;;;7.37;82.27;101254.22;4934918;28;20066;-87
2024/03/07 04:28:05;;;;;;;0.20;0.20;;;;;;;7.31;82.82;101262.13;4951166;29;20028;-88
2024/03/07 04:30:30;;;;;;;0.20;0.20;;;;;;;7.22;82.55;101257.19;4950998;29;20062;-87
2024/03/07 04:32:58;;;;;;;0.20;0.20;;;;;;;7.18;83.25;101236.69;4966688;28;20062;-88
2024/03/07 04:35:23;;;;;;;0.20;0.20;;;;;;;7.13;82.03;101246.25;4950764;29;20035;-88
2024/03/07 04:37:50;;;;;;;0.20;0.20;;;;;;;7.28;82.92;101270.78;4934908;29;20074;-88
2024/03/07 04:40:16;;;;;;;0.20;0.20;;;;;;;7.24;82.83;101268.28;4966936;28;20036;-87
2024/03/07 04:42:42;;;;;;;0.20;0.20;;;;;;;7.14;82.36;101260.81;4967027;28;20035;-86
2024/03/07 04:45:10;;;;;;;0.20;0.20;;;;;;;7.14;82.65;101252.25;4951090;29;20450;-87
2024/03/07 04:47:36;;;;;;;0.20;0.20;;;;;;;7.20;83.05;101267.53;4951182;29;20031;-89
2024/03/07 04:50:02;;;;;;;0.20;0.20;;;;;;;7.19;82.92;101263.28;4951689;29;20058;-87
2024/03/07 04:52:28;;;;;;;0.20;0.20;;;;;;;7.19;83.56;101264.13;4951144;29;20032;-88
2024/03/07 04:54:54;;;;;;;0.20;0.20;;;;;;;7.16;83.64;101268.47;4967392;28;20505;-87
2024/03/07 04:57:20;;;;;;;0.20;0.20;;;;;;;7.11;84.04;101262.63;4950750;29;20043;-87
2024/03/07 04:59:46;;;;;;;0.20;0.20;;;;;;;7.11;83.70;101254.91;4950985;29;20031;-87
2024/03/07 05:02:11;;;;;;;0.20;0.20;;;;;;;7.09;83.61;101256.66;4950908;29;20034;-87
2024/03/07 05:04:37;;;;;;;0.20;0.20;;;;;;;7.15;83.31;101267.63;4952140;28;20070;-90
2024/03/07 05:07:03;;;;;;;0.20;0.20;;;;;;;7.15;83.87;101274.50;4950999;29;20027;-88
2024/03/07 05:09:29;;;;;;;0.20;0.20;;;;;;;7.19;84.22;101269.28;4966730;28;20525;-87
2024/03/07 05:11:54;;;;;;;0.20;0.20;;;;;;;7.20;83.28;101270.13;4950979;29;20084;-86
2024/03/07 05:14:21;;;;;;;0.20;0.20;;;;;;;7.21;84.26;101268.38;4967316;28;20035;-86
2024/03/07 05:17:04;;;;;;;0.20;0.20;;;;;;;7.25;84.21;101280.28;4951035;29;20032;-90
2024/03/07 05:19:33;;;;;;;0.20;0.20;;;;;;;7.12;83.33;101285.72;4916084;29;20020;-93
2024/03/07 05:21:58;;;;;;;0.20;0.20;;;;;;;7.09;83.95;101284.97;4933792;29;20466;-88
2024/03/07 05:24:24;;;;;;;0.20;0.20;;;;;;;7.04;84.38;101273.94;4933107;29;20032;-85
2024/03/07 05:26:50;;;;;;;0.20;0.20;;;;;;;7.04;84.24;101290.22;4936105;29;20040;-91
2024/03/07 05:29:17;;;;;;;0.20;0.20;;;;;;;7.05;84.61;101281.59;4951584;28;20042;-84
2024/03/07 05:31:46;;;;;;;0.20;0.20;;;;;;;7.00;84.73;101283.47;4934356;29;20051;-93
2024/03/07 05:34:13;;;;;;;0.20;0.20;;;;;;;6.95;83.89;101287.84;4930210;29;20114;-95
2024/03/07 05:36:45;;;;;;;0.20;0.20;;;;;;;6.92;84.54;101290.50;4910555;29;20062;-88
2024/03/07 05:39:12;;;;;;;0.20;0.20;;;;;;;6.92;83.82;101294.81;4938060;29;20106;-84
2024/03/07 05:41:38;;;;;;;0.20;0.20;;;;;;;6.67;83.80;101279.06;4950847;29;20429;-83
2024/03/07 05:44:08;;;;;;;0.20;0.20;;;;;;;6.90;83.71;101300.00;4939554;28;20489;-86
2024/03/07 05:46:35;;;;;;;0.20;0.20;;;;;;;6.88;84.13;101302.59;4929149;29;20027;-86
2024/03/07 05:49:00;;;;;;;0.20;0.20;;;;;;;6.96;82.97;101317.84;4934718;29;20055;-91
2024/03/07 05:51:26;;;;;;;0.20;0.20;;;;;;;6.91;82.74;101317.09;4926038;29;20063;-88
2024/03/07 05:53:51;;;;;;;0.20;0.20;;;;;;;6.97;83.22;101324.66;4931769;29;20028;-92
2024/03/07 05:56:17;;;;;;;0.20;0.20;;;;;;;6.87;83.25;101321.47;4936554;29;20036;-89
2024/03/07 05:58:43;;;;;;;0.20;0.20;;;;;;;6.88;83.96;101330.91;4934756;29;20024;-84
2024/03/07 06:01:08;;;;;;;0.20;0.20;;;;;;;6.87;83.42;101336.88;4938049;29;20038;-90
2024/03/07 06:03:34;;;;;;;0.20;0.20;;;;;;;6.84;83.64;101328.41;4923809;29;20115;-89
2024/03/07 06:06:00;;;;;;;0.20;0.20;;;;;;;6.84;84.94;101324.09;4935495;29;20110;-94
2024/03/07 06:08:27;;;;;;;0.20;0.20;;;;;;;6.90;84.16;101323.13;4952809;28;20106;-87
2024/03/07 06:10:52;;;;;;;0.20;0.20;;;;;;;7.04;83.63;101339.09;4946928;29;20047;-83
2024/03/07 06:13:18;;;;;;;0.20;0.20;;;;;;;7.01;83.89;101336.59;4950320;28;20028;-84
2024/03/07 06:15:44;;;;;;;0.20;0.20;;;;;;;7.05;84.35;101343.34;4949390;29;20034;-86
2024/03/07 06:18:15;;;;;;;0.20;0.20;;;;;;;7.03;83.98;101337.41;4933626;29;20020;-85
2024/03/07 06:20:42;;;;;;;0.20;0.20;;;;;;;7.18;83.04;101347.34;4949068;29;20031;-86
2024/03/07 06:23:08;;;;;;;0.20;0.20;;;;;;;7.08;83.55;101352.72;4935169;29;20027;-90
2024/03/07 06:25:36;;;;;;;0.20;0.20;;;;;;;7.07;82.97;101333.88;4934973;29;20079;-92
2024/03/07 06:28:11;;;;;;;0.20;0.20;;;;;;;7.12;82.45;101339.75;4930728;29;20570;-84
2024/03/07 06:30:41;;;;;;;0.20;0.20;;;;;;;7.22;83.28;101353.25;4885917;29;20072;-90
2024/03/07 06:33:07;;;;;;;0.20;0.20;;;;;;;7.25;82.28;101352.34;4916590;29;20024;-90
2024/03/07 06:35:36;;;;;;;0.20;0.20;;;;;;;7.16;81.48;101363.69;4915846;29;20032;-90
2024/03/07 06:38:05;;;;;;;0.20;0.20;;;;;;;7.20;81.93;101357.59;4899824;29;20114;-90
2024/03/07 06:40:34;;;;;;;0.20;0.20;;;;;;;7.11;83.11;101353.53;4918430;29;20031;-88
2024/03/07 06:43:00;;;;;;;0.20;0.20;;;;;;;7.13;83.49;101358.63;4917703;29;20434;-90
2024/03/07 06:45:26;;;;;;;0.20;0.20;;;;;;;7.10;84.04;101356.97;4918549;29;20027;-92
2024/03/07 06:47:54;;;;;;;0.20;0.20;;;;;;;7.02;84.29;101364.00;4934576;29;20035;-89
2024/03/07 06:50:20;;;;;;;0.20;0.20;;;;;;;7.04;83.48;101371.69;4936126;29;20110;-90
2024/03/07 06:52:48;;;;;;;0.20;0.20;;;;;;;7.13;84.64;101366.34;4949992;28;20024;-87
2024/03/07 06:55:16;;;;;;;0.20;0.20;;;;;;;7.11;83.86;101374.09;4934797;29;20042;-89
2024/03/07 06:57:43;;;;;;;0.20;0.20;;;;;;;7.18;84.56;101379.97;4945533;29;20054;-88
2024/03/07 07:00:10;;;;;;;0.20;0.20;;;;;;;7.19;84.67;101376.50;4912642;29;20038;-87
2024/03/07 07:02:39;;;;;;;0.20;0.20;;;;;;;7.09;83.84;101368.16;4933380;29;20028;-84
2024/03/07 07:05:15;;;;;;;0.20;0.20;;;;;;;7.16;84.57;101376.56;4949413;29;20043;-88
2024/03/07 07:07:47;;;;;;;0.20;0.20;;;;;;;7.25;84.28;101385.78;4948498;28;20083;-85
2024/03/07 07:10:17;;;;;;;0.20;0.20;;;;;;;7.24;83.86;101387.53;4916908;29;20031;-84
2024/03/07 07:12:44;;;;;;;0.20;0.20;;;;;;;7.23;83.89;101387.56;4914918;29;20062;-88
2024/03/07 07:15:10;;;;;;;0.20;0.20;;;;;;;7.16;83.48;101367.09;4943684;29;20035;-86
2024/03/07 07:17:36;;;;;;;0.20;0.20;;;;;;;7.10;83.75;101361.28;4938249;28;20031;-89
2024/03/07 07:20:06;;;;;;;0.20;0.20;;;;;;;7.32;83.91;101402.78;4932455;29;20032;-92
2024/03/07 07:22:31;;;;;;;0.20;0.20;;;;;;;7.31;83.59;101403.69;4934994;29;20509;-92
2024/03/07 07:24:57;;;;;;;0.20;0.20;;;;;;;7.07;83.23;101359.59;4933217;29;20036;-83
2024/03/07 07:27:23;;;;;;;0.20;0.20;;;;;;;7.37;83.39;101413.81;4933666;29;20047;-89
2024/03/07 07:29:48;;;;;;;0.20;0.20;;;;;;;7.26;83.94;101414.06;4933014;29;20039;-84
2024/03/07 07:32:14;;;;;;;0.20;0.20;;;;;;;7.37;84.39;101401.78;4916403;29;20035;-84
2024/03/07 07:34:39;;;;;;;0.20;0.20;;;;;;;7.45;84.82;101404.19;4947960;29;20554;-89
2024/03/07 07:37:05;;;;;;;0.20;0.20;;;;;;;7.69;84.73;101424.22;4949984;29;20042;-92
2024/03/07 07:39:31;;;;;;;0.20;0.20;;;;;;;7.49;83.46;101390.38;4968245;28;20034;-90
2024/03/07 07:41:57;;;;;;;0.20;0.20;;;;;;;7.78;83.67;101420.59;4967501;28;20030;-87
2024/03/07 07:44:22;;;;;;;0.20;0.20;;;;;;;7.78;82.33;101417.16;4948741;29;20043;-92
2024/03/07 07:46:49;;;;;;;0.20;0.20;;;;;;;7.74;82.38;101424.09;4921164;29;20036;-89
2024/03/07 07:49:15;;;;;;;0.20;0.20;;;;;;;7.55;81.96;101421.13;4952004;29;20054;-90
2024/03/07 07:51:41;;;;;;;0.30;0.30;;;;;;;7.49;82.04;101416.13;4953697;28;20039;-90
2024/03/07 07:54:09;;;;;;;0.20;0.20;;;;;;;7.44;83.03;101418.78;4960105;28;20058;-89
2024/03/07 07:56:35;;;;;;;0.20;0.20;;;;;;;7.45;82.52;101424.78;4934392;29;20032;-87
2024/03/07 07:59:01;;;;;;;0.20;0.20;;;;;;;7.27;82.76;101428.63;4932198;29;20024;-88
2024/03/07 08:01:27;;;;;;;0.20;0.20;;;;;;;7.21;81.54;101425.38;4932004;29;20688;-91
2024/03/07 08:03:54;;;;;;;0.20;0.20;;;;;;;7.15;82.53;101442.63;4932943;29;20036;-92
2024/03/07 08:06:20;;;;;;;0.20;0.20;;;;;;;6.96;83.24;101400.16;4932066;29;20046;-88
2024/03/07 08:08:45;;;;;;;0.20;0.20;;;;;;;7.17;83.07;101424.56;4934172;29;20023;-91
2024/03/07 08:11:13;;;;;;;0.20;0.20;;;;;;;7.18;82.30;101429.69;4935610;29;20414;-82
2024/03/07 08:13:40;;;;;;;0.20;0.20;;;;;;;7.04;82.39;101433.44;4933668;29;20470;-91
2024/03/07 08:16:06;;;;;;;0.20;0.20;;;;;;;7.11;82.41;101441.00;4948473;29;20027;-90
2024/03/07 08:18:32;;;;;;;0.20;0.20;;;;;;;7.09;83.20;101447.06;4933289;29;20031;-93
2024/03/07 08:20:57;;;;;;;0.20;0.20;;;;;;;6.88;82.39;101414.91;4926613;29;20043;-89
2024/03/07 08:23:26;;;;;;;0.20;0.20;;;;;;;6.96;82.33;101432.75;4933432;29;20028;-92
2024/03/07 08:25:51;;;;;;;0.20;0.20;;;;;;;6.99;82.52;101433.56;4918723;29;20023;-91
2024/03/07 08:28:18;;;;;;;0.20;0.20;;;;;;;6.95;83.30;101449.06;4932826;29;20051;-89
2024/03/07 08:30:44;;;;;;;0.20;0.20;;;;;;;6.86;82.24;101450.09;4916391;29;20027;-88
2024/03/07 08:33:10;;;;;;;0.20;0.20;;;;;;;6.89;82.05;101455.19;4918762;29;20039;-89
2024/03/07 08:35:36;;;;;;;0.20;0.20;;;;;;;6.85;82.36;101453.56;4951396;29;20065;-91
2024/03/07 08:38:02;;;;;;;0.20;0.20;;;;;;;7.00;82.01;101468.69;4936683;29;20122;-89
2024/03/07 08:40:32;;;;;;;0.20;0.20;;;;;;;6.98;82.02;101465.31;4913415;29;20039;-91
2024/03/07 08:42:58;;;;;;;0.20;0.20;;;;;;;6.88;81.30;101456.06;4945904;28;20114;-84
2024/03/07 08:45:23;;;;;;;0.20;0.20;;;;;;;6.99;82.69;101472.13;4967159;28;20077;-92
2024/03/07 08:47:56;;;;;;;0.20;0.20;;;;;;;6.88;81.61;101468.91;4925019;29;20035;-91
2024/03/07 08:50:21;;;;;;;;;;;;;;;6.93;82.26;101476.56;4932378;29;20079;-87
2024/03/07 08:52:48;;;;;;;0.20;0.20;;;;;;;6.66;82.40;101467.66;4932850;29;19918;-86
2024/03/07 08:55:14;;;;;;;0.20;0.20;;;;;;;6.72;83.62;101467.53;4938546;29;20566;-86
2024/03/07 08:57:40;;;;;;;0.20;0.20;;;;;;;6.86;83.73;101470.69;4938289;29;20030;-91
2024/03/07 09:00:11;;;;;;;0.20;0.20;;;;;;;6.85;82.27;101474.13;4930968;29;20035;-90
2024/03/07 09:02:38;;;;;;;0.20;0.20;;;;;;;6.88;82.50;101479.19;4960326;28;20062;-91
2024/03/07 09:05:04;;;;;;;0.20;0.20;;;;;;;6.94;82.40;101486.81;4943650;29;20038;-92
2024/03/07 09:07:29;;;;;;;0.20;0.20;;;;;;;6.90;82.11;101487.75;4932438;29;20032;-87
2024/03/07 09:09:55;;;;;;;0.20;0.20;;;;;;;6.77;82.75;101463.13;4931515;29;20494;-88
2024/03/07 09:12:21;;;;;;;0.20;0.20;;;;;;;6.94;83.04;101488.53;4932696;29;20042;-87
2024/03/07 09:14:47;;;;;;;0.20;0.20;;;;;;;6.96;82.56;101482.47;4934995;29;20415;-93
2024/03/07 09:17:12;;;;;;;0.20;0.20;;;;;;;6.91;82.59;101486.88;4935772;29;20066;-88
2024/03/07 09:19:38;;;;;;;0.20;0.20;;;;;;;6.89;82.44;101480.94;4935463;29;20502;-90
2024/03/07 09:22:04;;;;;;;0.20;0.20;;;;;;;6.94;82.19;101491.94;4936216;29;20094;-93
2024/03/07 09:24:30;;;;;;;0.20;0.20;;;;;;;6.99;83.15;101491.88;4935428;29;20028;-93
2024/03/07 09:26:56;;;;;;;0.20;0.20;;;;;;;6.88;82.43;101492.94;4935078;29;20043;-88
2024/03/07 09:29:22;;;;;;;0.20;0.20;;;;;;;6.98;83.49;101483.31;4939362;29;20421;-94
2024/03/07 09:31:51;;;;;;;0.20;0.20;;;;;;;7.00;81.28;101491.84;4920407;29;20088;-87
2024/03/07 09:34:18;;;;;;;0.20;0.20;;;;;;;6.91;81.00;101492.03;4935171;29;20032;-87
2024/03/07 09:36:44;;;;;;;0.20;0.20;;;;;;;6.80;80.34;101491.41;4935363;29;20042;-85
2024/03/07 09:39:09;;;;;;;0.20;0.20;;;;;;;6.61;80.66;101478.88;4935657;29;20039;-86
2024/03/07 09:41:36;;;;;;;0.20;0.20;;;;;;;6.70;82.04;101506.16;4934690;29;20028;-87
2024/03/07 09:44:02;;;;;;;0.20;0.20;;;;;;;6.55;80.78;101491.84;4951411;28;20083;-89
2024/03/07 09:46:28;;;;;;;0.20;0.20;;;;;;;6.65;80.96;101514.81;4934518;29;20023;-88
2024/03/07 09:48:54;;;;;;;0.20;0.20;;;;;;;6.60;81.70;101507.19;4937498;29;20055;-90
2024/03/07 09:51:20;;;;;;;0.20;0.20;;;;;;;6.52;80.65;101511.63;4962407;28;20031;-88
2024/03/07 09:53:47;;;;;;;0.20;0.20;;;;;;;6.26;80.84;101499.22;4962302;28;20024;-90
2024/03/07 09:56:13;;;;;;;0.20;0.20;;;;;;;6.35;80.56;101514.50;4954294;29;20494;-85
2024/03/07 09:58:39;;;;;;;0.20;0.20;;;;;;;6.38;81.00;101524.69;4933658;29;20039;-84
2024/03/07 10:01:09;;;;;;;0.20;0.20;;;;;;;6.25;80.23;101525.78;4933915;29;20035;-89
2024/03/07 10:03:35;;;;;;;0.20;0.20;;;;;;;6.31;80.51;101538.56;4952795;29;20039;-90
2024/03/07 10:06:00;;;;;;;0.20;0.20;;;;;;;6.39;80.08;101541.84;4969196;28;20027;-85
2024/03/07 10:08:26;;;;;;;0.20;0.20;;;;;;;6.05;80.15;101513.28;4962551;28;20459;-90
2024/03/07 10:10:52;;;;;;;0.20;0.20;;;;;;;6.22;80.59;101541.28;4933444;29;20406;-87
2024/03/07 10:13:18;;;;;;;0.20;0.20;;;;;;;6.26;80.60;101545.47;4937819;29;20040;-86
2024/03/07 10:15:43;;;;;;;0.20;0.20;;;;;;;6.29;79.53;101550.56;4930023;29;20028;-92
2024/03/07 10:18:13;;;;;;;0.20;0.20;;;;;;;6.26;79.94;101545.47;4904087;29;20040;-91
2024/03/07 10:20:39;;;;;;;0.20;0.20;;;;;;;6.24;79.97;101537.78;4934551;29;20031;-89
2024/03/07 10:23:07;;;;;;;0.20;0.20;;;;;;;6.29;81.00;101540.28;4915904;29;20118;-88
2024/03/07 10:25:33;;;;;;;0.20;0.20;;;;;;;6.28;79.24;101551.44;4933899;29;20113;-92
2024/03/07 10:28:00;;;;;;;0.20;0.20;;;;;;;6.29;79.90;101546.28;4921242;29;20036;-85
2024/03/07 10:30:25;;;;;;;0.20;0.20;;;;;;;6.27;79.95;101557.44;4915940;29;20059;-86
2024/03/07 10:32:58;;;;;;;0.20;0.20;;;;;;;6.22;80.00;101539.56;4914678;29;20122;-85
2024/03/07 10:35:24;;;;;;;0.20;0.20;;;;;;;6.29;80.44;101536.00;4929532;29;20036;-86
2024/03/07 10:37:56;;;;;;;0.20;0.20;;;;;;;6.39;80.01;101561.53;4913431;29;20032;-89
2024/03/07 10:40:22;;;;;;;0.20;0.20;;;;;;;6.47;80.17;101560.53;4907532;29;20114;-85
2024/03/07 10:42:57;;;;;;;0.20;0.20;;;;;;;6.43;79.76;101561.47;4945220;28;20036;-87
2024/03/07 10:45:23;;;;;;;0.20;0.20;;;;;;;6.42;80.50;101561.50;4899805;29;20087;-89
2024/03/07 10:47:56;;;;;;;0.20;0.20;;;;;;;6.35;80.55;101558.19;4912334;29;20461;-93
2024/03/07 10:50:33;;;;;;;0.20;0.20;;;;;;;6.35;80.07;101563.31;4918891;29;20055;-87
2024/03/07 10:53:02;;;;;;;0.20;0.20;;;;;;;6.41;81.61;101552.09;4929123;29;20071;-86
2024/03/07 10:55:38;;;;;;;0.20;0.20;;;;;;;6.39;81.40;101547.00;4944515;28;21078;-85
2024/03/07 10:58:18;;;;;;;0.20;0.20;;;;;;;6.25;82.24;101530.94;4917453;29;20485;-86
2024/03/07 11:00:45;;;;;;;0.20;0.20;;;;;;;6.23;81.80;101543.81;4934015;29;20115;-92
2024/03/07 11:03:11;;;;;;;0.20;0.20;;;;;;;6.27;81.31;101552.31;4968060;28;20043;-93
2024/03/07 11:05:37;;;;;;;0.20;0.20;;;;;;;6.24;80.89;101542.94;4931866;29;20057;-88
2024/03/07 11:08:07;;;;;;;0.20;0.20;;;;;;;6.19;81.50;101538.72;4931497;29;20417;-87
2024/03/07 11:10:33;;;;;;;0.17;0.17;;;;;;;6.29;82.68;101553.13;4948002;29;20418;-84
2024/03/07 11:12:59;;;;;;;0.20;0.20;;;;;;;6.19;82.25;101547.28;4931186;29;20037;-88
2024/03/07 11:15:26;;;;;;;0.20;0.20;;;;;;;6.26;82.13;101550.63;4906966;29;20040;-86
2024/03/07 11:17:53;;;;;;;0.20;0.20;;;;;;;6.28;82.23;101551.44;4957269;28;20394;-91
2024/03/07 11:20:23;;;;;;;0.20;0.20;;;;;;;6.25;81.94;101541.22;4909458;29;20042;-94
2024/03/07 11:22:50;;;;;;;0.20;0.20;;;;;;;6.31;81.99;101548.84;4934270;29;20030;-89
2024/03/07 11:25:19;;;;;;;0.20;0.20;;;;;;;6.24;82.18;101536.94;4968127;28;20043;-88
2024/03/07 11:27:53;;;;;;;0.20;0.20;;;;;;;6.34;81.83;101543.63;4934153;28;20115;-86
2024/03/07 11:30:21;;;;;;;0.20;0.20;;;;;;;6.18;82.38;101522.47;4937994;29;20074;-85
2024/03/07 11:32:48;;;;;;;0.20;0.20;;;;;;;6.26;82.20;101538.63;4947404;28;20016;-87